createdAt,value
2017-11-06T00:01:27.635Z,1.63
2017-11-06T00:03:53.923Z,1.60
2017-11-06T00:06:20.085Z,1.60
2017-11-06T00:08:46.283Z,1.73
2017-11-06T00:11:12.608Z,2.67
2017-11-06T00:13:38.831Z,2.43
2017-11-06T00:16:04.966Z,2.80
2017-11-06T00:18:31.135Z,1.73
2017-11-06T00:20:57.259Z,1.27
2017-11-06T00:23:23.402Z,0.90
2017-11-06T00:25:49.596Z,1.37
2017-11-06T00:28:15.739Z,1.10
2017-11-06T00:30:42.126Z,1.23
2017-11-06T00:33:08.310Z,0.80
2017-11-06T00:35:34.303Z,1.00
2017-11-06T00:38:00.939Z,1.10
2017-11-06T00:40:27.133Z,1.10
2017-11-06T00:42:53.200Z,0.80
2017-11-06T00:45:19.742Z,0.90
2017-11-06T00:47:45.793Z,0.98
2017-11-06T00:50:11.901Z,0.80
2017-11-06T00:52:37.937Z,1.02
2017-11-06T00:55:04.463Z,0.80
2017-11-06T00:57:32.047Z,1.00
2017-11-06T00:59:58.105Z,0.90
2017-11-06T01:02:24.191Z,1.00
2017-11-06T01:04:50.277Z,1.00
2017-11-06T01:07:16.463Z,1.15
2017-11-06T01:09:42.478Z,0.90
2017-11-06T01:12:08.521Z,1.07
2017-11-06T01:14:34.593Z,0.90
2017-11-06T01:17:00.639Z,0.80
2017-11-06T01:19:28.488Z,1.33
2017-11-06T01:21:55.096Z,1.07
2017-11-06T01:24:21.172Z,1.10
2017-11-06T01:26:47.248Z,0.80
2017-11-06T01:29:13.401Z,1.10
2017-11-06T01:31:39.416Z,0.90
2017-11-06T01:34:05.434Z,1.17
2017-11-06T01:36:31.594Z,2.00
2017-11-06T01:38:57.729Z,1.37
2017-11-06T01:41:23.744Z,1.17
2017-11-06T01:43:49.914Z,1.20
2017-11-06T01:46:15.970Z,0.87
2017-11-06T01:48:42.008Z,1.17
2017-11-06T01:51:08.144Z,1.00
2017-11-06T01:53:34.460Z,1.00
2017-11-06T01:56:00.617Z,1.10
2017-11-06T01:58:27.631Z,0.90
2017-11-06T02:00:53.882Z,1.20
2017-11-06T02:03:20.004Z,1.00
2017-11-06T02:05:46.150Z,1.40
2017-11-06T02:08:12.315Z,1.10
2017-11-06T02:10:38.408Z,0.80
2017-11-06T02:13:05.008Z,1.52
2017-11-06T02:15:31.034Z,0.80
2017-11-06T02:17:57.171Z,0.80
2017-11-06T02:20:25.284Z,1.00
2017-11-06T02:22:51.478Z,0.90
2017-11-06T02:25:17.519Z,1.00
2017-11-06T02:27:43.816Z,1.12
2017-11-06T02:30:09.840Z,1.15
2017-11-06T02:32:35.998Z,1.25
2017-11-06T02:35:02.324Z,2.20
2017-11-06T02:37:28.430Z,1.20
2017-11-06T02:39:54.487Z,0.90
2017-11-06T02:42:20.607Z,5.57
2017-11-06T02:44:46.665Z,1.50
2017-11-06T02:47:12.827Z,1.65
2017-11-06T02:49:38.998Z,1.23
2017-11-06T02:52:05.105Z,1.17
2017-11-06T02:54:31.093Z,1.10
2017-11-06T02:56:57.207Z,1.00
2017-11-06T02:59:23.369Z,1.23
2017-11-06T03:01:49.418Z,1.30
2017-11-06T03:04:15.629Z,1.05
2017-11-06T03:06:41.730Z,0.95
2017-11-06T03:09:07.756Z,1.35
2017-11-06T03:11:33.879Z,1.10
2017-11-06T03:14:00.023Z,1.20
2017-11-06T03:16:26.151Z,1.48
2017-11-06T03:18:52.209Z,1.10
2017-11-06T03:21:18.217Z,1.50
2017-11-06T03:23:44.489Z,1.20
2017-11-06T03:26:10.874Z,1.10
2017-11-06T03:28:37.109Z,1.23
2017-11-06T03:31:03.179Z,1.00
2017-11-06T03:33:29.333Z,1.12
2017-11-06T03:35:55.381Z,1.17
2017-11-06T03:38:22.215Z,0.90
2017-11-06T03:40:48.330Z,1.12
2017-11-06T03:43:14.449Z,1.70
2017-11-06T03:45:40.452Z,1.00
2017-11-06T03:48:06.973Z,0.85
2017-11-06T03:50:33.405Z,0.90
2017-11-06T03:53:02.519Z,0.90
2017-11-06T03:55:28.640Z,0.90
2017-11-06T03:57:54.784Z,1.10
2017-11-06T04:00:20.846Z,1.00
2017-11-06T04:02:47.055Z,1.10
2017-11-06T04:05:13.174Z,1.17
2017-11-06T04:07:39.362Z,1.05
2017-11-06T04:10:05.705Z,1.17
2017-11-06T04:12:31.988Z,1.17
2017-11-06T04:14:58.077Z,1.50
2017-11-06T04:17:24.227Z,1.30
2017-11-06T04:19:50.333Z,1.00
2017-11-06T04:22:16.451Z,0.95
2017-11-06T04:24:42.722Z,1.05
2017-11-06T04:27:08.808Z,0.90
2017-11-06T04:29:34.866Z,2.67
2017-11-06T04:32:00.980Z,2.58
2017-11-06T04:34:27.033Z,1.40
2017-11-06T04:36:53.111Z,1.33
2017-11-06T04:39:19.288Z,1.10
2017-11-06T04:41:45.475Z,1.40
2017-11-06T04:44:11.582Z,1.52
2017-11-06T04:46:37.628Z,1.50
2017-11-06T04:49:03.816Z,1.37
2017-11-06T04:51:29.876Z,1.37
2017-11-06T04:53:55.952Z,1.33
2017-11-06T04:56:22.044Z,1.70
2017-11-06T04:58:48.085Z,1.50
2017-11-06T05:01:14.352Z,1.70
2017-11-06T05:03:40.520Z,1.50
2017-11-06T05:06:06.586Z,1.62
2017-11-06T05:08:32.623Z,3.92
2017-11-06T05:10:58.742Z,2.78
2017-11-06T05:13:24.849Z,1.65
2017-11-06T05:15:51.009Z,1.30
2017-11-06T05:18:17.097Z,1.23
2017-11-06T05:20:43.209Z,1.60
2017-11-06T05:23:09.296Z,2.28
2017-11-06T05:25:35.449Z,2.25
2017-11-06T05:28:01.494Z,1.45
2017-11-06T05:30:27.661Z,1.45
2017-11-06T05:32:53.678Z,1.65
2017-11-06T05:35:19.681Z,1.60
2017-11-06T05:37:46.514Z,1.50
2017-11-06T05:40:12.582Z,1.50
2017-11-06T05:42:38.770Z,1.92
2017-11-06T05:45:04.920Z,1.50
2017-11-06T05:47:31.054Z,1.55
2017-11-06T05:49:57.233Z,1.15
2017-11-06T05:52:23.478Z,1.95
2017-11-06T05:54:49.785Z,1.37
2017-11-06T05:57:15.905Z,1.27
2017-11-06T05:59:41.934Z,1.35
2017-11-06T06:02:08.119Z,1.40
2017-11-06T06:04:34.209Z,1.45
2017-11-06T06:07:00.374Z,1.48
2017-11-06T06:09:26.560Z,1.50
2017-11-06T06:11:52.684Z,1.30
2017-11-06T06:14:19.987Z,1.80
2017-11-06T06:16:53.140Z,1.52
2017-11-06T06:19:19.371Z,2.08
2017-11-06T06:21:45.621Z,1.85
2017-11-06T06:24:11.637Z,1.35
2017-11-06T06:26:37.894Z,1.60
2017-11-06T06:29:04.078Z,1.98
2017-11-06T06:31:30.628Z,1.60
2017-11-06T06:33:56.777Z,1.50
2017-11-06T06:36:22.954Z,2.30
2017-11-06T06:38:49.109Z,1.60
2017-11-06T06:41:15.232Z,2.45
2017-11-06T06:43:41.533Z,1.80
2017-11-06T06:46:07.626Z,1.75
2017-11-06T06:48:33.815Z,2.00
2017-11-06T06:51:00.195Z,1.77
2017-11-06T06:53:26.442Z,1.90
2017-11-06T06:55:52.562Z,1.67
2017-11-06T06:58:18.796Z,2.12
2017-11-06T07:00:44.912Z,2.00
2017-11-06T07:03:11.069Z,2.00
2017-11-06T07:05:44.243Z,1.90
2017-11-06T07:08:10.362Z,2.00
2017-11-06T07:10:36.485Z,3.42
2017-11-06T07:13:02.642Z,2.37
2017-11-06T07:15:28.658Z,2.43
2017-11-06T07:17:54.923Z,2.37
2017-11-06T07:20:21.162Z,2.03
2017-11-06T07:22:47.365Z,2.33
2017-11-06T07:25:13.564Z,3.90
2017-11-06T07:27:39.842Z,2.08
2017-11-06T07:30:06.008Z,2.40
2017-11-06T07:32:32.362Z,2.40
2017-11-06T07:34:58.609Z,2.33
2017-11-06T07:37:24.827Z,1.70
2017-11-06T07:39:51.066Z,3.75
2017-11-06T07:42:17.182Z,5.40
2017-11-06T07:44:43.260Z,2.00
2017-11-06T07:47:09.444Z,2.20
2017-11-06T07:49:35.655Z,2.20
2017-11-06T07:52:02.117Z,1.77
2017-11-06T07:54:28.191Z,3.17
2017-11-06T07:56:54.574Z,3.10
2017-11-06T07:59:20.825Z,1.92
2017-11-06T08:01:47.045Z,1.80
2017-11-06T08:04:13.696Z,2.00
2017-11-06T08:06:40.001Z,2.13
2017-11-06T08:09:06.119Z,1.37
2017-11-06T08:11:32.710Z,1.83
2017-11-06T08:13:58.936Z,1.83
2017-11-06T08:16:25.040Z,2.60
2017-11-06T08:18:51.509Z,2.50
2017-11-06T08:21:17.692Z,2.13
2017-11-06T08:23:43.830Z,2.43
2017-11-06T08:26:10.128Z,2.20
2017-11-06T08:28:36.400Z,1.70
2017-11-06T08:31:02.572Z,2.33
2017-11-06T08:33:29.188Z,1.87
2017-11-06T08:35:55.405Z,1.67
2017-11-06T08:38:21.494Z,1.83
2017-11-06T08:40:47.697Z,2.10
2017-11-06T08:43:13.979Z,2.20
2017-11-06T08:45:40.080Z,1.67
2017-11-06T08:48:06.350Z,1.90
2017-11-06T08:50:32.613Z,1.97
2017-11-06T08:52:58.703Z,2.93
2017-11-06T08:55:24.900Z,3.40
2017-11-06T08:57:51.138Z,2.47
2017-11-06T09:00:17.388Z,2.73
2017-11-06T09:02:43.513Z,2.73
2017-11-06T09:05:09.960Z,3.23
2017-11-06T09:07:36.133Z,3.37
2017-11-06T09:10:03.119Z,3.53
2017-11-06T09:12:29.563Z,4.77
2017-11-06T09:14:56.121Z,3.90
2017-11-06T09:17:22.593Z,4.43
2017-11-06T09:19:50.322Z,6.57
2017-11-06T09:22:17.215Z,6.73
2017-11-06T09:24:49.162Z,6.53
2017-11-06T09:27:16.231Z,9.20
2017-11-06T09:29:44.146Z,6.10
2017-11-06T09:32:13.562Z,6.20
2017-11-06T09:34:39.758Z,5.70
2017-11-06T09:37:09.441Z,6.63
2017-11-06T09:39:36.388Z,6.03
2017-11-06T09:42:02.494Z,6.80
2017-11-06T09:44:28.690Z,8.80
2017-11-06T09:46:56.754Z,8.20
2017-11-06T09:49:31.123Z,8.00
2017-11-06T09:51:59.407Z,6.37
2017-11-06T09:54:26.211Z,9.33
2017-11-06T09:56:57.793Z,8.40
2017-11-06T09:59:26.873Z,7.60
2017-11-06T10:01:53.065Z,7.27
2017-11-06T10:04:25.501Z,9.70
2017-11-06T10:06:51.832Z,9.20
2017-11-06T10:09:17.875Z,7.63
2017-11-06T10:11:43.983Z,9.20
2017-11-06T10:14:10.127Z,7.70
2017-11-06T10:16:36.313Z,8.07
2017-11-06T10:19:03.448Z,8.87
2017-11-06T10:21:29.612Z,8.03
2017-11-06T10:23:55.844Z,7.03
2017-11-06T10:26:22.287Z,11.30
2017-11-06T10:28:48.547Z,8.37
2017-11-06T10:31:14.681Z,8.93
2017-11-06T10:33:40.766Z,10.30
2017-11-06T10:36:06.960Z,9.60
2017-11-06T10:38:32.973Z,10.20
2017-11-06T10:40:59.318Z,12.67
2017-11-06T10:43:25.532Z,7.40
2017-11-06T10:45:51.818Z,7.80
2017-11-06T10:48:18.218Z,7.40
2017-11-06T10:50:44.873Z,9.07
2017-11-06T10:53:11.257Z,10.97
2017-11-06T10:55:37.416Z,8.47
2017-11-06T10:58:03.646Z,6.23
2017-11-06T11:00:29.863Z,8.90
2017-11-06T11:02:56.053Z,9.40
2017-11-06T11:05:22.362Z,10.70
2017-11-06T11:07:48.635Z,7.63
2017-11-06T11:10:14.717Z,6.20
2017-11-06T11:12:42.064Z,7.53
2017-11-06T11:15:08.376Z,8.03
2017-11-06T11:17:34.492Z,8.40
2017-11-06T11:20:01.400Z,9.63
2017-11-06T11:22:27.579Z,7.37
2017-11-06T11:24:53.949Z,6.20
2017-11-06T11:27:20.997Z,6.50
2017-11-06T11:29:47.169Z,7.37
2017-11-06T11:32:13.543Z,7.30
2017-11-06T11:34:40.000Z,8.63
2017-11-06T11:37:06.218Z,7.30
2017-11-06T11:39:32.432Z,8.13
2017-11-06T11:41:59.623Z,8.80
2017-11-06T11:44:25.729Z,7.33
2017-11-06T11:46:51.904Z,5.73
2017-11-06T11:49:18.008Z,7.07
2017-11-06T11:51:45.327Z,7.43
2017-11-06T11:54:11.507Z,9.80
2017-11-06T11:56:37.678Z,7.80
2017-11-06T11:59:03.938Z,7.10
2017-11-06T12:01:30.092Z,10.20
2017-11-06T12:03:56.230Z,8.93
2017-11-06T12:06:22.310Z,6.90
2017-11-06T12:08:48.475Z,9.43
2017-11-06T12:11:14.591Z,8.67
2017-11-06T12:13:40.797Z,11.00
2017-11-06T12:16:07.203Z,9.10
2017-11-06T12:18:33.286Z,6.23
2017-11-06T12:20:59.382Z,8.90
2017-11-06T12:23:25.485Z,8.03
2017-11-06T12:25:51.699Z,6.77
2017-11-06T12:28:17.951Z,7.67
2017-11-06T12:30:44.246Z,10.60
2017-11-06T12:33:10.830Z,9.03
2017-11-06T12:35:36.886Z,9.20
2017-11-06T12:38:03.002Z,7.40
2017-11-06T12:40:29.531Z,7.80
2017-11-06T12:42:55.879Z,9.93
2017-11-06T12:45:22.013Z,9.90
2017-11-06T12:47:48.504Z,13.00
2017-11-06T12:50:14.602Z,10.07
2017-11-06T12:52:41.856Z,10.03
2017-11-06T12:55:07.976Z,9.00
2017-11-06T12:57:34.354Z,10.13
2017-11-06T13:00:00.406Z,9.50
2017-11-06T13:02:26.600Z,7.80
2017-11-06T13:04:53.010Z,8.90
2017-11-06T13:07:19.136Z,9.30
2017-11-06T13:09:45.940Z,9.70
2017-11-06T13:12:11.984Z,11.20
2017-11-06T13:14:38.201Z,10.80
2017-11-06T13:17:04.451Z,10.97
2017-11-06T13:19:30.522Z,10.47
2017-11-06T13:21:56.726Z,9.47
2017-11-06T13:24:23.044Z,9.67
2017-11-06T13:26:49.159Z,10.80
2017-11-06T13:29:15.397Z,10.80
2017-11-06T13:31:41.563Z,8.67
2017-11-06T13:34:07.795Z,8.97
2017-11-06T13:36:34.106Z,9.23
2017-11-06T13:39:01.099Z,8.20
2017-11-06T13:41:27.461Z,9.43
2017-11-06T13:43:53.696Z,10.37
2017-11-06T13:46:19.763Z,12.03
2017-11-06T13:48:45.825Z,7.97
2017-11-06T13:51:12.092Z,7.43
2017-11-06T13:53:38.379Z,7.83
2017-11-06T13:56:04.630Z,10.80
2017-11-06T13:58:30.738Z,7.50
2017-11-06T14:00:56.771Z,10.00
2017-11-06T14:03:22.993Z,7.93
2017-11-06T14:05:49.024Z,7.37
2017-11-06T14:08:15.073Z,7.70
2017-11-06T14:10:41.276Z,7.07
2017-11-06T14:13:07.352Z,8.00
2017-11-06T14:15:33.525Z,13.83
2017-11-06T14:17:59.650Z,8.80
2017-11-06T14:20:25.799Z,7.13
2017-11-06T14:22:51.928Z,8.77
2017-11-06T14:25:18.009Z,6.30
2017-11-06T14:27:45.522Z,8.80
2017-11-06T14:30:11.685Z,7.10
2017-11-06T14:32:37.907Z,7.70
2017-11-06T14:35:04.046Z,6.80
2017-11-06T14:37:30.256Z,8.80
2017-11-06T14:39:56.372Z,8.10
2017-11-06T14:42:22.525Z,6.60
2017-11-06T14:44:48.810Z,6.43
2017-11-06T14:47:14.852Z,6.60
2017-11-06T14:49:41.120Z,5.40
2017-11-06T14:52:07.208Z,6.90
2017-11-06T14:54:35.143Z,7.73
2017-11-06T14:57:01.232Z,5.70
2017-11-06T14:59:27.319Z,6.63
2017-11-06T15:01:53.561Z,7.67
2017-11-06T15:04:19.634Z,6.43
2017-11-06T15:06:46.379Z,5.37
2017-11-06T15:09:13.625Z,5.53
2017-11-06T15:11:39.819Z,9.63
2017-11-06T15:14:06.035Z,5.93
2017-11-06T15:16:32.331Z,6.60
2017-11-06T15:18:58.664Z,7.60
2017-11-06T15:21:25.239Z,7.13
2017-11-06T15:23:51.584Z,8.33
2017-11-06T15:26:17.809Z,7.80
2017-11-06T15:28:44.301Z,7.90
2017-11-06T15:31:11.305Z,9.07
2017-11-06T15:33:37.539Z,6.57
2017-11-06T15:36:03.883Z,6.73
2017-11-06T15:38:30.169Z,5.90
2017-11-06T15:40:56.388Z,5.47
2017-11-06T15:43:22.610Z,6.50
2017-11-06T15:45:48.924Z,5.93
2017-11-06T15:48:15.176Z,8.00
2017-11-06T15:50:41.559Z,6.77
2017-11-06T15:53:07.787Z,8.00
2017-11-06T15:55:34.082Z,5.73
2017-11-06T15:58:00.282Z,7.80
2017-11-06T16:00:26.771Z,9.37
2017-11-06T16:02:53.242Z,8.50
2017-11-06T16:05:19.496Z,5.63
2017-11-06T16:07:45.650Z,6.57
2017-11-06T16:10:11.882Z,10.70
2017-11-06T16:12:38.169Z,7.53
2017-11-06T16:15:04.448Z,8.30
2017-11-06T16:17:30.720Z,9.47
2017-11-06T16:19:56.924Z,10.07
2017-11-06T16:22:23.145Z,7.53
2017-11-06T16:24:49.209Z,8.40
2017-11-06T16:27:15.456Z,6.03
2017-11-06T16:29:41.612Z,9.10
2017-11-06T16:32:07.880Z,7.30
2017-11-06T16:34:34.342Z,8.13
2017-11-06T16:37:00.492Z,7.40
2017-11-06T16:39:26.749Z,9.60
2017-11-06T16:41:53.137Z,8.50
2017-11-06T16:44:19.380Z,7.77
2017-11-06T16:46:45.677Z,5.90
2017-11-06T16:49:12.246Z,7.50
2017-11-06T16:51:38.463Z,8.67
2017-11-06T16:54:04.804Z,6.83
2017-11-06T16:56:31.021Z,7.80
2017-11-06T16:58:57.231Z,6.47
2017-11-06T17:01:23.351Z,6.80
2017-11-06T17:03:49.641Z,11.30
2017-11-06T17:06:16.044Z,7.57
2017-11-06T17:08:42.300Z,5.93
2017-11-06T17:11:08.881Z,6.63
2017-11-06T17:13:34.964Z,6.57
2017-11-06T17:16:01.274Z,10.93
2017-11-06T17:18:27.476Z,8.40
2017-11-06T17:20:53.684Z,6.87
2017-11-06T17:23:21.339Z,10.40
2017-11-06T17:25:48.384Z,6.83
2017-11-06T17:28:16.367Z,8.60
2017-11-06T17:30:42.601Z,6.57
2017-11-06T17:33:09.293Z,10.80
2017-11-06T17:35:35.758Z,8.10
2017-11-06T17:38:01.970Z,8.77
2017-11-06T17:40:28.150Z,8.97
2017-11-06T17:42:54.446Z,8.10
2017-11-06T17:45:20.832Z,6.83
2017-11-06T17:47:46.963Z,8.67
2017-11-06T17:50:13.179Z,9.93
2017-11-06T17:52:39.384Z,9.53
2017-11-06T17:55:05.755Z,9.93
2017-11-06T17:57:31.854Z,11.47
2017-11-06T17:59:58.006Z,10.80
2017-11-06T18:02:24.653Z,7.97
2017-11-06T18:04:50.977Z,15.20
2017-11-06T18:07:17.178Z,8.20
2017-11-06T18:09:43.371Z,10.77
2017-11-06T18:12:10.109Z,6.63
2017-11-06T18:14:37.756Z,12.67
2017-11-06T18:17:04.440Z,10.67
2017-11-06T18:19:30.774Z,9.10
2017-11-06T18:21:57.373Z,8.33
2017-11-06T18:24:23.585Z,7.80
2017-11-06T18:26:50.024Z,8.87
2017-11-06T18:29:16.029Z,10.20
2017-11-06T18:31:42.163Z,10.00
2017-11-06T18:34:08.245Z,8.00
2017-11-06T18:36:34.420Z,10.30
2017-11-06T18:39:01.692Z,10.57
2017-11-06T18:41:28.104Z,9.07
2017-11-06T18:43:54.426Z,10.20
2017-11-06T18:46:21.044Z,12.20
2017-11-06T18:48:47.212Z,7.70
2017-11-06T18:51:13.518Z,9.80
2017-11-06T18:53:39.680Z,9.63
2017-11-06T18:56:06.025Z,8.83
2017-11-06T18:58:32.320Z,7.97
2017-11-06T19:00:59.432Z,12.37
2017-11-06T19:03:25.581Z,9.20
2017-11-06T19:05:55.866Z,10.53
2017-11-06T19:08:22.138Z,13.90
2017-11-06T19:10:48.213Z,10.83
2017-11-06T19:13:14.430Z,12.93
2017-11-06T19:15:40.581Z,7.77
2017-11-06T19:18:06.723Z,10.37
2017-11-06T19:20:32.804Z,10.33
2017-11-06T19:22:59.125Z,8.70
2017-11-06T19:25:25.289Z,14.83
2017-11-06T19:27:51.998Z,12.17
2017-11-06T19:30:18.818Z,7.17
2017-11-06T19:32:44.957Z,8.27
2017-11-06T19:35:11.128Z,7.83
2017-11-06T19:37:38.056Z,9.43
2017-11-06T19:40:04.521Z,8.57
2017-11-06T19:42:30.673Z,10.93
2017-11-06T19:44:57.163Z,9.30
2017-11-06T19:47:23.313Z,7.27
2017-11-06T19:49:49.481Z,7.70
2017-11-06T19:52:15.532Z,16.70
2017-11-06T19:54:41.894Z,7.87
2017-11-06T19:57:08.014Z,11.87
2017-11-06T19:59:34.363Z,15.70
2017-11-06T20:02:00.570Z,11.87
2017-11-06T20:04:26.766Z,10.67
2017-11-06T20:06:53.009Z,10.73
2017-11-06T20:09:20.332Z,10.83
2017-11-06T20:11:46.465Z,10.20
2017-11-06T20:14:12.851Z,13.23
2017-11-06T20:16:39.177Z,14.57
2017-11-06T20:19:05.355Z,9.43
2017-11-06T20:21:31.919Z,9.97
2017-11-06T20:23:58.151Z,7.23
2017-11-06T20:26:24.388Z,14.03
2017-11-06T20:28:50.964Z,12.93
2017-11-06T20:31:17.287Z,9.90
2017-11-06T20:33:43.439Z,11.60
2017-11-06T20:36:09.594Z,7.83
2017-11-06T20:38:35.777Z,11.20
2017-11-06T20:41:01.961Z,7.50
2017-11-06T20:43:28.257Z,9.57
2017-11-06T20:45:54.355Z,6.90
2017-11-06T20:48:20.572Z,8.30
2017-11-06T20:50:46.955Z,11.33
2017-11-06T20:53:13.361Z,8.67
2017-11-06T20:55:39.619Z,6.90
2017-11-06T20:58:05.867Z,7.77
2017-11-06T21:00:32.104Z,6.07
2017-11-06T21:02:58.427Z,7.13
2017-11-06T21:05:24.647Z,8.77
2017-11-06T21:07:50.929Z,10.83
2017-11-06T21:10:17.424Z,8.77
2017-11-06T21:12:44.683Z,6.73
2017-11-06T21:15:11.142Z,11.27
2017-11-06T21:17:37.572Z,8.50
2017-11-06T21:20:03.864Z,7.27
2017-11-06T21:22:30.000Z,7.00
2017-11-06T21:24:56.951Z,6.87
2017-11-06T21:27:23.245Z,7.90
2017-11-06T21:29:55.411Z,8.67
2017-11-06T21:32:21.554Z,6.67
2017-11-06T21:34:47.805Z,7.73
2017-11-06T21:37:14.034Z,12.27
2017-11-06T21:39:40.520Z,6.90
2017-11-06T21:42:06.792Z,7.00
2017-11-06T21:44:33.056Z,8.57
2017-11-06T21:46:59.184Z,8.20
2017-11-06T21:49:26.003Z,6.90
2017-11-06T21:51:52.274Z,7.53
2017-11-06T21:54:18.660Z,7.57
2017-11-06T21:56:44.829Z,13.80
2017-11-06T21:59:11.051Z,8.63
2017-11-06T22:01:37.213Z,9.23
2017-11-06T22:04:03.395Z,10.50
2017-11-06T22:06:29.574Z,5.03
2017-11-06T22:08:55.694Z,6.50
2017-11-06T22:11:21.819Z,7.53
2017-11-06T22:13:48.127Z,10.07
2017-11-06T22:16:14.285Z,9.00
2017-11-06T22:18:40.435Z,11.97
2017-11-06T22:21:07.114Z,9.23
2017-11-06T22:23:33.226Z,13.03
2017-11-06T22:25:59.312Z,7.97
2017-11-06T22:28:25.523Z,5.80
2017-11-06T22:30:51.604Z,7.43
2017-11-06T22:33:17.853Z,9.07
2017-11-06T22:35:43.983Z,13.60
2017-11-06T22:38:10.077Z,6.70
2017-11-06T22:40:36.357Z,8.20
2017-11-06T22:43:02.458Z,10.10
2017-11-06T22:45:28.593Z,8.57
2017-11-06T22:47:54.741Z,7.07
2017-11-06T22:50:20.795Z,11.03
2017-11-06T22:52:46.864Z,8.17
2017-11-06T22:55:13.028Z,10.63
2017-11-06T22:57:39.036Z,11.30
2017-11-06T23:00:05.352Z,8.70
2017-11-06T23:02:31.786Z,11.83
2017-11-06T23:04:57.826Z,9.90
2017-11-06T23:07:23.846Z,9.60
2017-11-06T23:09:49.978Z,11.00
2017-11-06T23:12:16.106Z,16.23
2017-11-06T23:14:42.241Z,9.23
2017-11-06T23:17:08.493Z,6.87
2017-11-06T23:19:34.559Z,7.67
2017-11-06T23:22:00.796Z,6.93
2017-11-06T23:24:27.993Z,10.17
2017-11-06T23:26:54.027Z,7.07
2017-11-06T23:29:20.154Z,9.43
2017-11-06T23:31:46.278Z,8.63
2017-11-06T23:34:12.509Z,13.60
2017-11-06T23:36:39.148Z,9.83
2017-11-06T23:39:05.407Z,11.60
2017-11-06T23:41:31.467Z,13.13
2017-11-06T23:43:57.609Z,11.43
2017-11-06T23:46:23.677Z,7.90
2017-11-06T23:48:49.815Z,11.07
2017-11-06T23:51:15.903Z,7.53
2017-11-06T23:53:42.066Z,11.93
2017-11-06T23:56:08.269Z,11.93
2017-11-06T23:58:34.405Z,10.90
